Time;durP1;ratioP1;P1;durP2;ratioP2;P2;SDS_P1;SDS_P2;PMS_P1;PMS_P2;Temp;Humidity;BMP_temperature;BMP_pressure;BME280_temperature;BME280_humidity;BME280_pressure;Samples;Min_cycle;Max_cycle;Signal;HPM_P1;HPM_P2
2021/12/24 00:00:21;;;;;;;0.60;0.60;;;7.60;76.90;6.80;97577.00;;;;5099724;28;20218;-74
2021/12/24 00:02:49;;;;;;;0.70;0.70;;;7.60;77.20;6.80;97571.00;;;;5099498;28;20275;-74
2021/12/24 00:05:17;;;;;;;4.33;1.80;;;7.60;77.40;6.80;97561.00;;;;5117464;28;20309;-74
2021/12/24 00:07:46;;;;;;;2.90;0.90;;;7.60;77.60;6.70;97556.00;;;;5117415;28;20218;-72
2021/12/24 00:10:13;;;;;;;1.10;1.10;;;7.60;77.60;6.90;97563.00;;;;5117503;28;20202;-72
2021/12/24 00:12:45;;;;;;;1.90;1.77;;;7.60;78.20;6.90;97563.00;;;;5117478;28;20235;-73
2021/12/24 00:15:38;;;;;;;0.50;0.50;;;7.70;77.90;7.00;97563.00;;;;5117351;28;20282;-71
2021/12/24 00:18:15;;;;;;;4.43;0.83;;;7.70;77.70;6.90;97561.00;;;;5117299;28;20658;-71
2021/12/24 00:21:50;;;;;;;0.90;0.90;;;7.70;77.90;6.90;97563.00;;;;5117341;28;20232;-72
2021/12/24 00:35:16;;;;;;;1.33;1.23;;;7.70;76.50;6.80;97558.00;;;;5117055;28;20246;-73
2021/12/24 00:37:46;;;;;;;0.90;0.90;;;7.60;76.30;6.80;97551.00;;;;5117111;28;20418;-73
2021/12/24 00:40:18;;;;;;;11.37;1.23;;;7.60;76.30;6.70;97555.00;;;;5117002;28;20206;-73
2021/12/24 00:42:51;;;;;;;1.10;1.00;;;7.60;76.50;6.70;97557.00;;;;5116979;28;20194;-72
2021/12/24 00:45:21;;;;;;;0.80;0.80;;;7.60;76.80;6.80;97546.00;;;;5116153;28;20316;-72
2021/12/24 00:47:49;;;;;;;0.97;0.97;;;7.60;77.00;6.80;97540.00;;;;5116604;28;20214;-71
2021/12/24 00:50:21;;;;;;;0.67;0.67;;;7.60;76.60;6.80;97539.00;;;;5116771;28;20208;-72
2021/12/24 00:52:52;;;;;;;1.10;0.97;;;7.60;76.30;6.70;97529.00;;;;5116926;28;20196;-72
2021/12/24 00:55:25;;;;;;;0.70;0.70;;;7.50;76.70;6.80;97532.00;;;;5116727;28;20205;-72
2021/12/24 00:57:55;;;;;;;2.30;1.03;;;7.50;76.70;6.80;97528.00;;;;5098774;28;20229;-73
2021/12/24 01:00:26;;;;;;;0.80;0.80;;;7.60;76.50;6.80;97530.00;;;;5098710;28;20213;-72
2021/12/24 01:02:59;;;;;;;0.60;0.60;;;7.60;76.40;7.00;97537.00;;;;5116704;28;20239;-73
2021/12/24 01:05:28;;;;;;;1.17;1.07;;;7.60;76.50;7.00;97540.00;;;;5116448;28;20282;-72
2021/12/24 01:07:56;;;;;;;1.20;1.13;;;7.70;75.40;6.80;97539.00;;;;5098617;28;20229;-72
2021/12/24 01:10:27;;;;;;;1.50;1.23;;;7.60;75.50;6.80;97528.00;;;;5116411;28;20210;-72
2021/12/24 01:12:54;;;;;;;0.80;0.80;;;7.60;75.60;6.60;97533.00;;;;5098683;28;20370;-72
2021/12/24 01:15:24;;;;;;;0.60;0.60;;;7.50;75.80;6.50;97539.00;;;;5116607;28;20202;-72
2021/12/24 01:17:55;;;;;;;2.00;1.83;;;7.40;76.20;6.50;97536.00;;;;5098306;28;20355;-72
2021/12/24 01:20:27;;;;;;;0.90;0.90;;;7.40;76.80;6.50;97535.00;;;;5116426;28;20196;-72
2021/12/24 01:25:43;;;;;;;0.90;0.90;;;7.30;77.30;6.50;97529.00;;;;5116277;28;20286;-72
2021/12/24 01:28:36;;;;;;;1.40;0.93;;;7.30;78.10;6.50;97522.00;;;;5098361;28;20305;-72
2021/12/24 01:39:39;;;;;;;0.80;0.80;;;7.60;77.00;6.80;97533.00;;;;5116027;28;20194;-71
2021/12/24 01:44:54;;;;;;;2.97;1.20;;;7.50;76.10;6.60;97525.00;;;;5115864;28;20649;-72
2021/12/24 01:47:21;;;;;;;1.33;1.23;;;7.50;76.20;6.60;97522.00;;;;5115962;28;20288;-72
2021/12/24 01:49:50;;;;;;;1.53;1.33;;;7.40;76.20;6.50;97524.00;;;;5115809;28;20669;-72
2021/12/24 01:52:17;;;;;;;0.70;0.70;;;7.30;77.20;6.40;97518.00;;;;5097971;28;20201;-72
2021/12/24 01:54:46;;;;;;;0.83;0.83;;;7.30;76.70;6.40;97525.00;;;;5115770;28;20233;-72
2021/12/24 01:57:16;;;;;;;2.83;1.90;;;7.20;76.80;6.30;97514.00;;;;5115651;28;20674;-72
2021/12/24 01:59:43;;;;;;;1.00;1.00;;;7.20;76.90;6.30;97517.00;;;;5115790;28;20648;-73
2021/12/24 02:02:10;;;;;;;0.70;0.70;;;7.10;77.20;6.20;97517.00;;;;5115714;28;20205;-72
2021/12/24 02:04:36;;;;;;;0.60;0.60;;;7.10;77.30;6.20;97503.00;;;;5115641;28;20669;-72
2021/12/24 02:07:04;;;;;;;0.73;0.73;;;7.00;78.20;6.20;97505.00;;;;5115574;28;20298;-72
2021/12/24 02:09:30;;;;;;;0.60;0.60;;;6.90;77.70;6.10;97517.00;;;;5115506;28;20280;-71
2021/12/24 02:11:59;;;;;;;1.00;1.00;;;7.00;77.80;6.10;97515.00;;;;5098202;28;20513;-72
2021/12/24 02:14:33;;;;;;;0.80;0.80;;;7.00;78.60;6.10;97470.00;;;;5115616;28;20198;-72
2021/12/24 02:17:38;;;;;;;0.60;0.60;;;6.90;78.10;6.00;97505.00;;;;5115521;28;20220;-72
2021/12/24 02:28:38;;;;;;;1.03;1.03;;;6.80;78.50;5.90;97480.00;;;;5115286;28;20208;-72
2021/12/24 02:31:07;;;;;;;1.57;1.47;;;6.70;78.60;5.90;97477.00;;;;5097250;28;20242;-72
2021/12/24 02:33:34;;;;;;;1.13;1.13;;;6.70;78.70;5.80;97487.00;;;;5115235;28;20655;-73
2021/12/24 02:36:02;;;;;;;1.10;1.10;;;6.70;78.70;5.80;97478.00;;;;5115025;28;20189;-73
2021/12/24 02:38:29;;;;;;;0.90;0.90;;;6.60;78.70;5.70;97475.00;;;;5115220;28;20210;-72
2021/12/24 02:40:59;;;;;;;0.80;0.80;;;6.60;78.70;5.70;97476.00;;;;5114218;28;20217;-72
2021/12/24 02:43:26;;;;;;;1.00;1.00;;;6.60;78.90;5.70;97465.00;;;;5115117;28;20250;-72
2021/12/24 02:45:57;;;;;;;0.60;0.60;;;6.50;79.00;5.70;97463.00;;;;5114940;28;20343;-71
2021/12/24 02:48:48;;;;;;;1.03;1.03;;;6.50;79.20;5.60;97453.00;;;;5115007;28;20201;-72
2021/12/24 02:54:00;;;;;;;1.13;1.10;;;6.50;79.90;5.60;97443.00;;;;5114923;28;20275;-72
2021/12/24 02:56:32;;;;;;;0.70;0.70;;;6.40;80.00;5.60;97435.00;;;;5114763;28;20229;-72
2021/12/24 02:59:02;;;;;;;1.80;1.70;;;6.40;79.90;5.50;97440.00;;;;5097008;28;20212;-73
2021/12/24 03:01:34;;;;;;;1.37;1.07;;;6.40;79.80;5.50;97441.00;;;;5114868;28;20283;-72
2021/12/24 03:04:01;;;;;;;0.70;0.70;;;6.30;80.00;5.40;97438.00;;;;5096918;28;20257;-72
2021/12/24 03:06:32;;;;;;;0.70;0.70;;;6.30;80.20;5.40;97445.00;;;;5114758;28;20204;-72
2021/12/24 03:09:01;;;;;;;1.60;1.50;;;6.30;80.40;5.50;97446.00;;;;5114051;28;20226;-72
2021/12/24 03:11:30;;;;;;;0.80;0.80;;;6.30;80.70;5.50;97443.00;;;;5114807;28;20205;-72
2021/12/24 03:13:56;;;;;;;1.80;1.70;;;6.30;80.90;5.40;97454.00;;;;5114699;28;20224;-73
2021/12/24 03:16:23;;;;;;;1.00;1.00;;;6.30;81.10;5.50;97444.00;;;;5114439;28;20259;-72
2021/12/24 03:18:50;;;;;;;1.10;1.10;;;6.30;81.10;5.50;97443.00;;;;5114655;28;20196;-73
2021/12/24 03:21:20;;;;;;;0.80;0.80;;;6.30;81.10;5.50;97435.00;;;;5114709;28;20198;-72
2021/12/24 03:26:32;;;;;;;0.83;0.83;;;6.30;81.40;5.50;97431.00;;;;5095619;28;20220;-73
2021/12/24 03:28:59;;;;;;;0.87;0.87;;;6.30;81.40;5.50;97425.00;;;;5114409;28;20193;-72
2021/12/24 03:31:25;;;;;;;0.60;0.60;;;6.40;81.50;5.50;97412.00;;;;5096902;28;20595;-72
2021/12/24 03:33:53;;;;;;;1.50;1.43;;;6.40;81.60;5.50;97412.00;;;;5114651;28;20214;-72
2021/12/24 03:36:22;;;;;;;1.43;1.33;;;6.40;81.70;5.60;97413.00;;;;5114450;28;20556;-72
2021/12/24 03:38:50;;;;;;;1.03;1.03;;;6.40;81.70;5.50;97410.00;;;;5114528;28;20284;-72
2021/12/24 03:41:16;;;;;;;1.63;1.53;;;6.40;81.60;5.60;97397.00;;;;5114431;28;20261;-73
2021/12/24 03:43:43;;;;;;;1.70;1.60;;;6.40;81.50;5.60;97400.00;;;;5114315;28;20311;-74
2021/12/24 03:46:15;;;;;;;0.70;0.70;;;6.40;81.40;5.60;97400.00;;;;5114461;28;20193;-72
2021/12/24 03:48:49;;;;;;;0.80;0.80;;;6.40;81.40;5.60;97409.00;;;;5114318;28;20191;-73
2021/12/24 03:51:35;;;;;;;1.37;1.37;;;6.40;81.60;5.40;97410.00;;;;5114329;28;20200;-72
2021/12/24 03:56:50;;;;;;;3.33;1.77;;;6.40;81.70;5.60;97409.00;;;;5114132;28;20282;-72
2021/12/24 03:59:16;;;;;;;1.67;1.23;;;6.40;81.60;5.50;97401.00;;;;5114155;28;20208;-75
2021/12/24 04:01:45;;;;;;;0.87;0.87;;;6.40;81.60;5.60;97403.00;;;;5096318;28;20219;-73
2021/12/24 04:04:12;;;;;;;0.60;0.60;;;6.40;81.70;5.60;97399.00;;;;5114037;28;20316;-71
2021/12/24 04:06:39;;;;;;;1.00;1.00;;;6.40;82.20;5.60;97393.00;;;;5113984;28;20204;-72
2021/12/24 04:09:08;;;;;;;1.07;1.07;;;6.40;81.90;5.60;97401.00;;;;5113793;28;20194;-73
2021/12/24 04:11:38;;;;;;;2.53;1.23;;;6.40;82.70;5.60;97394.00;;;;5114055;28;20218;-73
2021/12/24 04:14:07;;;;;;;0.80;0.80;;;6.40;81.80;5.60;97386.00;;;;5113868;28;20704;-72
2021/12/24 04:16:34;;;;;;;1.00;1.00;;;6.40;82.20;5.60;97381.00;;;;5095886;28;20320;-73
2021/12/24 04:19:21;;;;;;;0.83;0.83;;;6.40;82.30;5.60;97381.00;;;;5113759;28;20295;-72
2021/12/24 04:24:52;;;;;;;0.77;0.77;;;6.40;82.40;5.70;97382.00;;;;5117252;28;20227;-73
2021/12/24 04:27:21;;;;;;;0.83;0.83;;;6.40;82.40;5.70;97379.00;;;;5117365;28;20258;-72
2021/12/24 04:29:48;;;;;;;0.63;0.60;;;6.50;82.30;5.60;97381.00;;;;5117179;28;20214;-73
2021/12/24 04:32:20;;;;;;;0.90;0.83;;;6.40;82.20;5.60;97370.00;;;;5117235;28;20202;-73
2021/12/24 04:34:50;;;;;;;0.60;0.60;;;6.40;82.20;5.60;97370.00;;;;5117133;28;20193;-72
2021/12/24 04:51:14;;;;;;;0.87;0.87;;;6.80;83.60;6.10;97360.00;;;;5117038;28;20200;-73
2021/12/24 05:02:26;;;;;;;1.07;1.07;;;7.00;83.60;6.20;97365.00;;;;5116617;28;20478;-72
2021/12/24 05:05:01;;;;;;;0.60;0.60;;;7.00;83.70;6.30;97365.00;;;;5116598;28;20295;-73
2021/12/24 05:07:55;;;;;;;1.00;1.00;;;7.00;84.30;6.30;97365.00;;;;5116689;28;20613;-72
2021/12/24 05:10:24;;;;;;;0.60;0.60;;;7.10;84.40;6.40;97377.00;;;;5116382;28;20221;-73
2021/12/24 05:12:52;;;;;;;1.03;1.03;;;7.20;84.50;6.50;97364.00;;;;5116555;28;20205;-72
2021/12/24 05:15:18;;;;;;;0.80;0.80;;;7.30;84.90;6.70;97372.00;;;;5116426;28;20197;-73
2021/12/24 05:18:02;;;;;;;1.20;1.10;;;7.40;85.40;6.80;97373.00;;;;5116477;28;20209;-73
2021/12/24 05:23:14;;;;;;;0.83;0.83;;;7.60;84.20;6.90;97364.00;;;;5116259;28;20267;-73
2021/12/24 05:25:45;;;;;;;1.17;1.13;;;7.60;84.10;7.20;97367.00;;;;5098287;28;20648;-72
2021/12/24 05:28:13;;;;;;;0.97;0.97;;;7.80;84.20;7.20;97366.00;;;;5098394;28;20205;-73
2021/12/24 05:30:40;;;;;;;1.03;1.03;;;7.90;83.70;7.20;97367.00;;;;5116278;28;20190;-73
2021/12/24 05:33:12;;;;;;;0.60;0.60;;;7.90;83.70;7.30;97358.00;;;;5115662;28;20190;-72
2021/12/24 05:35:38;;;;;;;0.77;0.77;;;8.00;83.10;7.30;97374.00;;;;5098204;28;20241;-72
2021/12/24 05:38:05;;;;;;;0.93;0.93;;;8.00;83.00;7.40;97358.00;;;;5116146;28;20206;-73
2021/12/24 05:40:34;;;;;;;0.60;0.60;;;8.10;94.60;7.50;97355.00;;;;5116112;28;20632;-74
2021/12/24 05:43:00;;;;;;;0.83;0.83;;;8.20;92.20;7.60;97354.00;;;;5115850;28;20233;-73
2021/12/24 05:45:27;;;;;;;0.80;0.80;;;8.20;88.40;7.90;97363.00;;;;5115952;28;20222;-73
2021/12/24 05:47:54;;;;;;;0.70;0.70;;;8.50;87.70;7.90;97353.00;;;;5115973;28;20278;-72
2021/12/24 05:50:23;;;;;;;0.80;0.80;;;8.60;84.10;8.10;97346.00;;;;5115866;28;20217;-72
2021/12/24 05:52:50;;;;;;;0.73;0.73;;;8.80;79.30;8.30;97352.00;;;;5098384;28;20565;-73
2021/12/24 05:55:16;;;;;;;0.53;0.53;;;8.90;79.10;8.30;97346.00;;;;5115649;28;20285;-74
2021/12/24 05:57:43;;;;;;;0.60;0.60;;;8.90;78.20;8.10;97355.00;;;;5115891;28;20752;-73
2021/12/24 06:00:12;;;;;;;0.87;0.87;;;8.80;77.90;8.30;97364.00;;;;5115726;28;20636;-73
2021/12/24 06:02:40;;;;;;;0.90;0.90;;;9.00;77.70;8.40;97368.00;;;;5115645;28;20226;-73
2021/12/24 06:05:07;;;;;;;1.17;1.17;;;9.10;77.40;8.50;97368.00;;;;5115584;28;20213;-73
2021/12/24 06:07:33;;;;;;;0.90;0.90;;;9.20;77.00;8.50;97365.00;;;;5115637;28;20281;-73
2021/12/24 06:10:00;;;;;;;1.30;1.30;;;9.20;76.60;8.60;97369.00;;;;5115565;28;20281;-72
2021/12/24 06:12:27;;;;;;;0.93;0.93;;;9.30;76.80;8.70;97364.00;;;;5097649;28;20216;-71
2021/12/24 06:15:00;;;;;;;0.60;0.60;;;9.40;76.50;8.80;97367.00;;;;5115521;28;20714;-72
2021/12/24 06:17:27;;;;;;;1.40;1.07;;;9.40;76.20;8.90;97369.00;;;;5115544;28;20205;-71
2021/12/24 06:19:54;;;;;;;0.77;0.77;;;9.60;75.90;8.90;97366.00;;;;5115426;28;20637;-72
2021/12/24 06:22:21;;;;;;;1.07;1.07;;;9.60;75.50;9.00;97363.00;;;;5115271;28;20257;-73
2021/12/24 06:24:47;;;;;;;1.63;1.20;;;9.60;75.80;9.10;97378.00;;;;5115431;28;20252;-72
2021/12/24 06:27:14;;;;;;;0.80;0.80;;;9.70;75.90;9.20;97356.00;;;;5115378;28;20277;-72
2021/12/24 06:29:40;;;;;;;0.80;0.80;;;9.80;75.60;9.20;97351.00;;;;5097228;28;20320;-72
2021/12/24 06:32:08;;;;;;;0.83;0.83;;;9.90;75.20;9.10;97367.00;;;;5097301;28;20238;-72
2021/12/24 06:34:35;;;;;;;0.87;0.87;;;9.80;75.20;9.20;97360.00;;;;5115274;28;20684;-73
2021/12/24 06:37:03;;;;;;;2.10;0.90;;;9.90;75.80;9.20;97374.00;;;;5115274;28;20286;-72
2021/12/24 06:39:30;;;;;;;1.03;0.80;;;9.90;74.80;9.30;97377.00;;;;5115163;28;20186;-74
2021/12/24 06:41:56;;;;;;;0.73;0.73;;;10.00;74.40;9.20;97379.00;;;;5114868;28;20306;-72
2021/12/24 06:44:23;;;;;;;0.50;0.50;;;9.90;74.40;9.20;97391.00;;;;5114047;28;20213;-73
2021/12/24 06:46:50;;;;;;;1.17;1.17;;;9.90;74.00;9.30;97385.00;;;;5115018;28;20609;-72
2021/12/24 06:49:16;;;;;;;0.70;0.70;;;10.00;73.40;9.00;97390.00;;;;5115182;28;20308;-73
2021/12/24 06:51:43;;;;;;;0.90;0.90;;;9.90;73.70;9.10;97395.00;;;;5114950;28;20288;-73
2021/12/24 06:54:11;;;;;;;0.50;0.50;;;9.80;73.80;9.10;97393.00;;;;5097099;28;20589;-73
2021/12/24 06:56:37;;;;;;;1.83;1.43;;;9.80;72.90;9.00;97400.00;;;;5096918;28;20303;-73
2021/12/24 06:59:06;;;;;;;0.97;0.97;;;9.70;73.10;8.90;97386.00;;;;5114824;28;20206;-73
2021/12/24 07:01:33;;;;;;;1.67;1.57;;;9.70;73.20;9.00;97391.00;;;;5114871;28;20221;-72
2021/12/24 07:03:59;;;;;;;0.93;0.93;;;9.70;72.90;8.90;97393.00;;;;5114831;28;20301;-72
2021/12/24 07:06:27;;;;;;;1.73;1.67;;;9.60;73.20;9.00;97396.00;;;;5114666;28;20218;-74
2021/12/24 07:08:54;;;;;;;0.80;0.80;;;9.60;73.20;9.00;97384.00;;;;5114565;28;20232;-73
2021/12/24 07:11:21;;;;;;;0.80;0.80;;;9.70;73.40;9.00;97380.00;;;;5114836;28;20190;-73
2021/12/24 07:13:47;;;;;;;2.20;1.40;;;9.60;73.60;9.00;97390.00;;;;5114641;28;20316;-72
2021/12/24 07:16:14;;;;;;;0.93;0.93;;;9.60;73.50;8.80;97395.00;;;;5114508;28;20292;-73
2021/12/24 07:18:41;;;;;;;0.93;0.93;;;9.60;74.00;8.80;97401.00;;;;5114651;28;20277;-73
2021/12/24 07:21:08;;;;;;;1.20;1.10;;;9.50;74.10;8.70;97412.00;;;;5114457;28;20292;-73
2021/12/24 07:23:35;;;;;;;0.73;0.73;;;9.50;74.70;8.60;97404.00;;;;5114516;28;20213;-72
2021/12/24 07:26:02;;;;;;;1.00;1.00;;;9.40;75.40;8.70;97397.00;;;;5114374;28;20226;-72
2021/12/24 07:28:29;;;;;;;0.87;0.87;;;9.40;75.40;8.70;97391.00;;;;5114350;28;20290;-72
2021/12/24 07:30:56;;;;;;;0.80;0.80;;;9.40;75.10;8.60;97383.00;;;;5114172;28;20210;-72
2021/12/24 07:33:22;;;;;;;0.83;0.83;;;9.40;75.70;8.50;97396.00;;;;5114302;28;20281;-72
2021/12/24 07:35:49;;;;;;;0.63;0.63;;;9.30;76.50;8.60;97408.00;;;;5114320;28;20605;-73
2021/12/24 07:38:16;;;;;;;4.23;1.23;;;9.30;76.40;8.70;97395.00;;;;5096572;28;20644;-72
2021/12/24 07:40:44;;;;;;;0.90;0.90;;;9.30;76.80;8.60;97386.00;;;;5114312;28;20210;-72
2021/12/24 07:43:11;;;;;;;0.90;0.90;;;9.30;76.70;8.60;97380.00;;;;5114289;28;20198;-73
2021/12/24 07:45:42;;;;;;;0.90;0.90;;;9.30;76.70;8.60;97380.00;;;;5114129;28;20546;-72
2021/12/24 07:48:12;;;;;;;0.97;0.97;;;9.30;77.50;8.40;97379.00;;;;5114184;28;20645;-73
2021/12/24 07:53:26;;;;;;;1.10;1.10;;;9.20;77.60;8.40;97390.00;;;;5114021;28;20229;-73
2021/12/24 07:55:55;;;;;;;1.63;1.00;;;9.10;78.30;8.30;97390.00;;;;5115843;28;20684;-73
2021/12/24 07:58:21;;;;;;;1.23;1.23;;;9.10;78.10;8.30;97399.00;;;;5099566;28;20217;-72
2021/12/24 08:00:52;;;;;;;1.80;1.70;;;9.10;78.20;8.20;97394.00;;;;5099570;28;20202;-73
2021/12/24 08:03:19;;;;;;;0.70;0.70;;;9.00;78.40;8.10;97391.00;;;;5117503;28;20639;-72
2021/12/24 08:05:48;;;;;;;0.80;0.80;;;8.90;79.10;8.10;97350.00;;;;5117600;28;20305;-72
2021/12/24 08:08:15;;;;;;;1.00;1.00;;;8.90;79.90;8.20;97382.00;;;;5099549;28;20218;-73
2021/12/24 08:10:44;;;;;;;0.70;0.70;;;8.90;78.80;8.20;97382.00;;;;5117387;28;20202;-73
2021/12/24 08:13:13;;;;;;;1.30;1.30;;;8.90;79.10;8.10;97384.00;;;;5117444;28;20205;-72
2021/12/24 08:15:48;;;;;;;0.90;0.90;;;8.90;79.10;8.10;97386.00;;;;5117289;28;20217;-73
2021/12/24 08:18:17;;;;;;;0.70;0.70;;;8.80;79.70;8.10;97383.00;;;;5117447;28;20208;-73
2021/12/24 08:20:43;;;;;;;1.00;1.00;;;8.90;79.90;8.10;97392.00;;;;5117396;28;20274;-72
2021/12/24 08:23:10;;;;;;;1.30;1.30;;;8.80;80.00;8.10;97389.00;;;;5117189;28;20731;-72
2021/12/24 08:25:37;;;;;;;0.97;0.97;;;8.90;79.70;8.00;97392.00;;;;5117148;28;20218;-72
2021/12/24 08:28:05;;;;;;;0.80;0.80;;;8.80;79.70;8.00;97397.00;;;;5117045;28;20609;-73
2021/12/24 08:30:32;;;;;;;1.33;1.33;;;8.80;80.20;8.00;97391.00;;;;5117198;28;20215;-73
2021/12/24 08:33:00;;;;;;;0.87;0.87;;;8.80;80.30;8.20;97397.00;;;;5116983;28;20212;-73
2021/12/24 08:35:28;;;;;;;1.23;1.23;;;8.80;81.40;8.10;97396.00;;;;5116967;28;20317;-73
2021/12/24 08:37:55;;;;;;;1.10;1.10;;;8.80;80.40;8.20;97397.00;;;;5117057;28;20290;-73
2021/12/24 08:40:22;;;;;;;0.70;0.70;;;8.80;80.10;8.20;97399.00;;;;5117127;28;20205;-75
2021/12/24 08:42:50;;;;;;;0.70;0.70;;;8.90;79.20;8.10;97396.00;;;;5116816;28;20715;-73
2021/12/24 08:45:19;;;;;;;1.43;1.33;;;8.80;79.30;8.10;97392.00;;;;5117001;28;20244;-73
2021/12/24 08:47:46;;;;;;;0.63;0.63;;;8.80;79.00;8.10;97387.00;;;;5116486;28;20277;-73
2021/12/24 08:50:13;;;;;;;1.83;1.23;;;8.90;78.80;8.10;97390.00;;;;5116851;28;20284;-72
2021/12/24 08:52:43;;;;;;;0.60;0.60;;;8.80;78.70;8.20;97381.00;;;;5098950;28;20209;-73
2021/12/24 08:55:13;;;;;;;1.30;1.20;;;8.90;78.60;8.30;97387.00;;;;5098820;28;20225;-72
2021/12/24 08:57:43;;;;;;;1.00;1.00;;;8.90;78.40;8.20;97388.00;;;;5116871;28;20190;-72
2021/12/24 09:00:14;;;;;;;1.13;1.07;;;8.90;78.20;8.30;97380.00;;;;5116570;28;20520;-73
2021/12/24 09:02:43;;;;;;;0.80;0.80;;;8.90;77.80;8.30;97381.00;;;;5116728;28;20194;-72
2021/12/24 09:05:11;;;;;;;1.17;1.07;;;9.00;77.90;8.50;97373.00;;;;5116648;28;20561;-73
2021/12/24 09:07:37;;;;;;;0.70;0.70;;;9.10;77.50;8.40;97388.00;;;;5097652;28;20217;-73
2021/12/24 09:10:07;;;;;;;0.80;0.80;;;9.10;77.00;8.40;97388.00;;;;5116541;28;20198;-72
2021/12/24 09:12:33;;;;;;;0.60;0.60;;;9.10;77.80;8.30;97385.00;;;;5116518;28;20193;-72
2021/12/24 09:15:04;;;;;;;0.80;0.80;;;9.10;78.10;8.30;97378.00;;;;5116533;28;20770;-72
2021/12/24 09:17:31;;;;;;;1.00;1.00;;;9.00;78.50;8.40;97378.00;;;;5116534;28;20351;-72
2021/12/24 09:19:58;;;;;;;1.20;1.07;;;9.10;78.40;8.30;97381.00;;;;5116413;28;20221;-72
2021/12/24 09:22:30;;;;;;;1.70;1.40;;;9.00;78.90;8.30;97369.00;;;;5116374;28;20255;-72
2021/12/24 09:24:59;;;;;;;0.97;0.97;;;9.10;79.30;8.40;97384.00;;;;5098363;28;20232;-72
2021/12/24 09:27:26;;;;;;;0.60;0.60;;;9.10;79.50;8.40;97379.00;;;;5098201;28;20210;-72
2021/12/24 09:29:53;;;;;;;0.80;0.80;;;9.10;80.00;8.50;97385.00;;;;5116168;28;20692;-73
2021/12/24 09:32:20;;;;;;;0.60;0.60;;;9.20;79.50;8.50;97394.00;;;;5098135;28;20224;-73
2021/12/24 09:34:46;;;;;;;0.93;0.93;;;9.20;79.60;8.40;97395.00;;;;5098313;28;20519;-73
2021/12/24 09:37:13;;;;;;;0.90;0.90;;;9.20;80.50;8.30;97392.00;;;;5116237;28;20285;-73
2021/12/24 09:39:39;;;;;;;0.73;0.73;;;9.10;80.80;8.20;97396.00;;;;5115920;28;20270;-71
2021/12/24 09:42:09;;;;;;;0.90;0.90;;;9.00;82.60;8.20;97392.00;;;;5115945;28;20206;-70
2021/12/24 09:44:37;;;;;;;0.70;0.70;;;9.00;82.60;8.40;97393.00;;;;5115891;28;20198;-71
2021/12/24 09:47:04;;;;;;;0.80;0.80;;;9.00;82.40;8.30;97391.00;;;;5116014;28;20554;-71
2021/12/24 09:49:34;;;;;;;0.80;0.80;;;9.00;82.30;8.30;97392.00;;;;5115945;28;20205;-70
2021/12/24 09:52:03;;;;;;;0.87;0.87;;;9.00;83.20;8.30;97393.00;;;;5115843;28;20266;-71
2021/12/24 09:54:31;;;;;;;0.70;0.70;;;8.90;83.20;8.10;97396.00;;;;5115904;28;20269;-71
2021/12/24 09:56:58;;;;;;;0.63;0.63;;;8.80;84.20;8.10;97393.00;;;;5097716;28;20317;-71
2021/12/24 09:59:25;;;;;;;1.17;1.13;;;8.80;84.50;8.00;97397.00;;;;5115741;28;20256;-71
2021/12/24 10:01:56;;;;;;;1.10;1.10;;;8.80;85.30;8.00;97403.00;;;;5115588;28;20312;-71
2021/12/24 10:04:28;;;;;;;1.60;1.50;;;8.70;85.60;7.80;97401.00;;;;5115590;28;20232;-71
2021/12/24 10:06:59;;;;;;;1.33;1.33;;;8.60;87.00;7.80;97388.00;;;;5115510;28;20214;-70
2021/12/24 10:09:31;;;;;;;1.07;1.07;;;8.60;88.30;7.70;97376.00;;;;5115698;28;20305;-71
2021/12/24 10:12:02;;;;;;;1.03;1.03;;;8.50;89.10;7.70;97378.00;;;;5115407;28;20222;-72
2021/12/24 10:14:33;;;;;;;5.50;1.53;;;8.40;89.40;7.70;97384.00;;;;5115493;28;20676;-71
2021/12/24 10:17:03;;;;;;;0.70;0.70;;;8.50;89.50;8.00;97381.00;;;;5115422;28;20232;-72
2021/12/24 10:19:43;;;;;;;1.07;1.07;;;8.60;88.80;7.70;97375.00;;;;5115363;28;20193;-72
2021/12/24 10:22:10;;;;;;;2.53;1.17;;;8.50;89.10;7.80;97374.00;;;;5115372;28;20221;-72
2021/12/24 10:24:36;;;;;;;2.73;1.67;;;8.50;89.30;7.80;97361.00;;;;5115257;28;20633;-72
2021/12/24 10:27:05;;;;;;;0.90;0.90;;;8.50;89.00;7.80;97365.00;;;;5115252;28;20218;-71
2021/12/24 10:29:37;;;;;;;0.90;0.90;;;8.50;89.00;7.80;97366.00;;;;5115184;28;20195;-72
2021/12/24 10:32:14;;;;;;;0.90;0.90;;;8.50;89.00;7.90;97364.00;;;;5115290;28;20228;-71
2021/12/24 10:34:43;;;;;;;1.10;1.00;;;8.60;88.80;7.90;97354.00;;;;5097131;28;20520;-70
2021/12/24 10:37:18;;;;;;;0.73;0.73;;;8.60;88.50;7.80;97353.00;;;;5115014;28;20270;-71
2021/12/24 10:39:50;;;;;;;0.93;0.93;;;8.60;88.60;7.80;97349.00;;;;5115204;28;20212;-71
2021/12/24 10:42:26;;;;;;;1.03;1.03;;;8.50;88.70;7.80;97349.00;;;;5114766;28;20375;-73
2021/12/24 10:44:56;;;;;;;1.03;1.03;;;8.50;88.80;7.80;97343.00;;;;5097046;28;20584;-73
2021/12/24 10:47:26;;;;;;;1.10;1.10;;;8.60;88.70;7.80;97343.00;;;;5097060;28;20310;-73
2021/12/24 10:50:04;;;;;;;0.67;0.67;;;8.60;88.80;7.80;97341.00;;;;5114945;28;20194;-75
2021/12/24 10:55:35;;;;;;;1.37;1.27;;;8.60;88.90;7.80;97322.00;;;;5114809;28;20198;-72
2021/12/24 10:58:06;;;;;;;1.20;1.20;;;8.60;88.90;7.90;97332.00;;;;5096855;28;20233;-72
2021/12/24 11:00:38;;;;;;;1.07;1.07;;;8.60;88.90;8.00;97327.00;;;;5114773;28;20204;-74
2021/12/24 11:03:11;;;;;;;1.30;1.30;;;8.70;88.90;7.90;97326.00;;;;5114639;28;20659;-74
2021/12/24 11:05:41;;;;;;;2.67;1.23;;;8.70;88.10;7.90;97331.00;;;;5114702;28;20214;-73
2021/12/24 11:08:11;;;;;;;0.83;0.83;;;8.60;88.20;8.00;97324.00;;;;5114611;28;20264;-72
2021/12/24 11:10:41;;;;;;;1.53;1.43;;;8.60;88.80;8.00;97316.00;;;;5114778;28;20251;-73
2021/12/24 11:13:14;;;;;;;1.03;1.03;;;8.70;88.70;8.00;97320.00;;;;5096665;28;20292;-74
2021/12/24 11:15:45;;;;;;;0.90;0.90;;;8.70;88.60;8.10;97321.00;;;;5114594;28;20219;-76
2021/12/24 11:18:19;;;;;;;5.30;1.80;;;8.70;88.30;8.10;97309.00;;;;5114210;28;20220;-72
2021/12/24 11:20:53;;;;;;;1.67;1.57;;;8.70;88.20;8.10;97315.00;;;;5114421;28;20287;-73
2021/12/24 11:23:24;;;;;;;1.03;1.03;;;8.80;87.80;8.00;97310.00;;;;5114303;28;20176;-74
2021/12/24 11:25:54;;;;;;;1.23;1.13;;;8.80;87.80;8.10;97321.00;;;;5114322;28;20213;-72
2021/12/24 11:28:24;;;;;;;0.97;0.97;;;8.80;86.90;7.90;97319.00;;;;5114387;28;20205;-73
2021/12/24 11:30:54;;;;;;;0.60;0.60;;;8.80;87.70;8.00;97314.00;;;;5100654;28;20201;-73
2021/12/24 11:33:23;;;;;;;0.80;0.80;;;8.70;87.70;7.90;97316.00;;;;5121237;28;20221;-73
2021/12/24 11:35:52;;;;;;;0.80;0.80;;;8.70;88.60;8.00;97318.00;;;;5121080;28;20311;-74
2021/12/24 11:38:21;;;;;;;0.70;0.70;;;8.80;87.70;8.00;97314.00;;;;5121049;28;20293;-73
2021/12/24 11:40:53;;;;;;;0.60;0.60;;;8.70;87.70;8.10;97300.00;;;;5121055;28;20217;-73
2021/12/24 11:43:24;;;;;;;1.13;1.13;;;8.80;87.50;8.00;97298.00;;;;5121175;28;20676;-73
2021/12/24 11:45:50;;;;;;;0.70;0.70;;;8.70;87.40;8.00;97302.00;;;;5120865;28;20277;-74
2021/12/24 11:48:17;;;;;;;0.60;0.60;;;8.70;87.70;8.10;97315.00;;;;5120733;28;20213;-73
2021/12/24 11:50:46;;;;;;;0.87;0.87;;;8.80;87.50;8.10;97298.00;;;;5120981;28;20189;-73
2021/12/24 11:53:17;;;;;;;0.60;0.60;;;8.80;87.50;8.00;97303.00;;;;5121037;28;20384;-73
2021/12/24 11:55:48;;;;;;;0.67;0.67;;;8.80;87.70;8.20;97291.00;;;;5103025;28;20193;-73
2021/12/24 11:58:19;;;;;;;0.70;0.70;;;8.80;87.90;8.20;97290.00;;;;5120782;28;20358;-74
2021/12/24 12:00:52;;;;;;;1.50;1.00;;;8.90;87.90;8.10;97295.00;;;;5121021;28;20222;-73
2021/12/24 12:03:45;;;;;;;0.83;0.83;;;8.90;88.20;8.20;97288.00;;;;5120746;28;20217;-73
2021/12/24 12:06:33;;;;;;;0.77;0.77;;;8.90;88.80;8.50;97272.00;;;;5117142;28;20294;-72
2021/12/24 12:09:01;;;;;;;0.70;0.70;;;;;8.50;97268.00;;;;5120650;28;20218;-73
2021/12/24 12:11:30;;;;;;;0.97;0.97;;;9.10;94.30;8.70;97270.00;;;;5102753;28;20644;-73
2021/12/24 12:13:59;;;;;;;2.00;1.53;;;9.20;95.80;8.80;97272.00;;;;5120826;28;20226;-73
2021/12/24 12:16:29;;;;;;;0.73;0.73;;;;;8.80;97263.00;;;;5120866;28;20193;-73
2021/12/24 12:19:15;;;;;;;0.70;0.70;;;9.50;91.80;8.70;97226.00;;;;5102746;28;20226;-73
2021/12/24 12:22:13;;;;;;;0.90;0.90;;;9.40;89.10;8.90;97260.00;;;;5120886;28;20216;-73
2021/12/24 12:27:35;;;;;;;0.80;0.80;;;;;8.90;97258.00;;;;5120542;28;20198;-73
2021/12/24 12:30:30;;;;;;;1.00;1.00;;;9.60;99.70;8.70;97252.00;;;;5120497;28;20633;-73
2021/12/24 12:33:15;;;;;;;1.10;1.10;;;9.40;99.10;8.80;97256.00;;;;5120317;28;20217;-73
2021/12/24 12:35:50;;;;;;;0.70;0.70;;;9.40;96.30;8.80;97257.00;;;;5120432;28;20194;-73
2021/12/24 12:38:33;;;;;;;0.70;0.70;;;9.40;95.50;8.70;97248.00;;;;5120428;28;20634;-72
2021/12/24 12:41:31;;;;;;;1.17;1.17;;;9.40;95.50;8.80;97226.00;;;;5119398;28;20194;-73